This is the latest recevied weather packets stored in our database for station/object N0SWP-3. If no packets are shown the sender has not sent any weather packets the latest 10 day(s).
| Time | Temp. | Humidity | Pressure | Rain* | Wind** | Luminosity | Snow |
|---|---|---|---|---|---|---|---|
| 1777221903 | 22.78° C | 67% | 1009.5 hPa | 0 mm | - | - | - |
| 1777221183 | 22.78° C | 68% | 1009.8 hPa | 0 mm | - | - | - |
| 1777218663 | 22.22° C | 69% | 1009.8 hPa | 0 mm | - | - | - |
| 1777218483 | 22.22° C | 68% | 1009.8 hPa | 0 mm | - | - | - |
| 1777217537 | 21.67° C | 69% | 1010.2 hPa | 0 mm | - | - | - |
| 1777216683 | 21.11° C | 72% | 1010.4 hPa | 0 mm | - | - | - |
| 1777216323 | 21.11° C | 73% | 1010.5 hPa | 0 mm | - | - | - |
| 1777215783 | 21.11° C | 74% | 1010.6 hPa | 0 mm | - | - | - |
| 1777215243 | 20.56° C | 76% | 1010.5 hPa | 0 mm | - | - | - |
| 1777215063 | 20.56° C | 76% | 1010.6 hPa | 0 mm | - | - | - |
| 1777214883 | 20.56° C | 77% | 1010.7 hPa | 0 mm | - | - | - |
| 1777214163 | 20° C | 78% | 1010.7 hPa | 0 mm | - | - | - |
| 1777213263 | 19.44° C | 80% | 1010.5 hPa | 0 mm | - | - | - |
| 1777212363 | 17.78° C | 85% | 1010.3 hPa | 0 mm | - | - | - |
| 1777211463 | 17.22° C | 88% | 1010.5 hPa | 0 mm | - | - | - |
| 1777209483 | 15.56° C | 91% | 1011.1 hPa | 0 mm | - | - | - |
| 1777208717 | 15° C | 92% | 1011 hPa | 0 mm | - | - | - |
| 1777208403 | 14.44° C | 92% | 1011 hPa | 0 mm | - | - | - |
| 1777207863 | 14.44° C | 92% | 1011 hPa | 0 mm | - | - | - |
| 1777207503 | 14.44° C | 92% | 1011 hPa | 0 mm | - | - | - |
| 1777206963 | 13.89° C | 93% | 1011 hPa | 0 mm | - | - | - |
| 1777206603 | 13.89° C | 94% | 1010.9 hPa | 0 mm | - | - | - |
| 1777206198 | 13.33° C | 94% | 1010.9 hPa | 0 mm | - | - | - |
| 1777204623 | 12.78° C | 95% | 1010.7 hPa | 0 mm | - | - | - |
| 1777204217 | 12.78° C | 95% | 1010.6 hPa | 0 mm | - | - | - |
* Rain latest hour (hover to see other rain measurements)
** Current wind speed in m/s (hover to see current wind gust speed)